AIGUAFREDA (Vallès Oriental)





Hora UTC 06:20
Temperatura 22.0 ºC
Suelo 15 cm 22.4 ºC
Humedad 80.3 %
Presión 1009.0 hPa
Pluja 0.0 mm
Velocidad viento 0.0 km/h
Dirección viento NNE
Radiación solar 0.0 W/m²

Datos diarios 2024-07-21



Hora UTC (invierno +1h; verano +2h)
Temperatura (ºC) Humedad (%) Presión (hPa) Velocidad viento (km/h) Precipitación (mm) Radiación solar (W/m²)
Hora UTC Aire Suelo 15 cm Humedad Presión Vel. Dir. Vel. Max Dir. Intent. máx 5 min. Rad. Sol.
00:05 21.4 20.4 79.5 1007.3 0.0 NNE 0.0 NNW 0.0 0.0
00:10 21.4 20.4 79.8 1007.4 0.0 NNE 0.0 NNW 0.0 0.0
00:15 21.5 20.4 80.1 1007.3 1.3 WSW 6.1 WSW 0.0 0.0
00:20 21.6 20.4 81.4 1007.2 1.6 SW 6.1 WSW 0.0 0.0
00:25 21.4 20.3 78.8 1007.0 1.5 SE 6.1 SE 0.0 0.0
00:30 21.4 20.2 78.7 1007.1 0.2 ESE 3.4 ESE 0.0 0.0
00:35 21.2 20.1 79.1 1007.3 1.0 NE 3.4 NE 0.0 0.0
00:40 21.1 20.0 79.5 1007.2 0.9 NE 6.1 NE 0.0 0.0
00:45 21.1 19.8 79.7 1007.3 0.1 E 3.4 E 0.0 0.0
00:50 21.0 19.7 80.0 1007.3 0.4 ENE 3.4 E 0.0 0.0
00:55 20.9 19.7 79.7 1007.1 2.0 WNW 6.1 NW 0.0 0.0
01:00 20.7 19.6 79.2 1007.0 1.1 NNW 6.1 NNW 0.0 0.0
01:05 20.7 19.4 79.9 1007.0 0.0 NNE 0.0 N 0.0 0.0
01:10 20.6 19.3 80.4 1007.2 0.7 NE 8.8 ENE 0.0 0.0
01:15 20.6 19.2 81.1 1007.3 2.3 NNE 6.1 NE 0.0 0.0
01:20 20.6 19.2 81.4 1007.2 1.9 SW 6.1 WSW 0.0 0.0
01:25 20.6 19.1 81.1 1007.4 0.4 NNE 3.4 SW 0.0 0.0
01:30 20.6 19.1 81.8 1007.4 0.0 NNE 0.0 N 0.0 0.0
01:35 20.5 19.0 81.6 1007.1 0.4 W 3.4 W 0.0 0.0
01:40 20.5 18.9 81.8 1007.2 0.0 NNE 0.0 NNE 0.0 0.0
01:45 20.4 18.9 82.0 1007.1 0.6 NE 6.1 NE 0.0 0.0
01:50 20.3 18.9 82.3 1007.0 0.1 SW 6.1 SSW 0.0 0.0
01:55 20.3 18.8 82.0 1007.0 1.0 WSW 6.1 SW 0.0 0.0
02:00 20.2 18.8 81.9 1006.9 0.0 NNE 0.0 WNW 0.0 0.0
02:05 20.1 18.8 82.2 1007.1 0.6 ENE 3.4 E 0.0 0.0
02:10 20.2 19.0 81.9 1007.1 0.1 WNW 3.4 NNW 0.0 0.0
02:15 20.2 19.1 81.1 1007.3 0.3 W 3.4 WSW 0.0 0.0
02:20 20.3 19.1 80.8 1007.3 0.1 ESE 3.4 ESE 0.0 0.0
02:25 20.3 19.1 80.9 1007.1 0.9 SSW 6.1 SSW 0.0 0.0
02:30 20.3 19.1 80.4 1007.2 1.3 S 6.1 SSE 0.0 0.0
02:35 20.3 19.2 79.3 1007.4 3.4 SSE 6.1 SSE 0.0 0.0
02:40 20.3 19.2 78.8 1007.3 0.4 ENE 3.4 ESE 0.0 0.0
02:45 20.3 19.1 79.4 1007.3 0.0 NNE 0.0 ENE 0.0 0.0
02:50 20.3 19.3 79.8 1007.5 0.0 NNE 0.0 NNE 0.0 0.0
02:55 20.4 19.5 79.6 1007.6 0.0 NNE 0.0 0.0 0.0
03:00 20.5 19.6 79.8 1007.3 0.0 NW 3.4 NW 0.0 0.0
03:05 20.5 19.7 79.8 1007.3 0.4 W 3.4 NW 0.0 0.0
03:10 20.5 19.7 80.1 1007.3 0.0 NNE 0.0 SW 0.0 0.0
03:15 20.5 19.6 80.3 1007.5 0.1 WNW 3.4 WNW 0.0 0.0
03:20 20.5 19.5 80.3 1007.6 0.0 NNE 0.0 NNW 0.0 0.0
03:25 20.4 19.4 80.8 1007.6 0.0 NNE 0.0 NE 0.0 0.0
03:30 20.4 19.3 81.0 1007.6 0.1 SSE 3.4 SE 0.0 0.0
03:35 20.3 19.2 80.7 1007.6 0.1 SSE 3.4 SSE 0.0 0.0
03:40 20.3 19.2 81.0 1007.6 0.0 NNE 0.0 SSE 0.0 0.0
03:45 20.2 19.1 81.0 1007.6 0.0 NNE 0.0 ENE 0.0 0.0
03:50 20.2 19.1 81.3 1007.6 0.0 NNE 0.0 ENE 0.0 0.0
03:55 20.2 19.1 81.1 1007.6 1.4 SE 6.1 SE 0.0 0.0
04:00 20.2 19.1 81.0 1007.7 0.5 SE 6.1 SE 0.0 0.0
04:05 20.2 19.1 81.1 1007.6 0.0 E 3.4 E 0.0 0.0
04:10 20.3 19.1 81.8 1007.8 0.0 NNE 0.0 E 0.0 0.0
04:15 20.3 19.1 82.5 1007.8 0.6 ESE 3.4 ESE 0.0 0.0
04:20 20.4 19.1 83.1 1007.8 0.7 WSW 3.4 WSW 0.0 0.0
04:25 20.4 19.1 82.9 1008.0 0.1 SW 3.4 SW 0.0 0.0
04:30 20.3 19.0 82.2 1008.0 1.7 SSE 6.1 SE 0.0 0.0
04:35 20.2 19.0 82.1 1008.0 0.4 ESE 3.4 SSE 0.0 0.0
04:40 20.2 18.9 82.4 1008.0 0.0 NNE 0.0 SE 0.0 0.0
04:45 20.1 18.9 83.0 1008.2 0.4 NE 3.4 NE 0.0 0.0
04:50 20.1 18.8 83.7 1008.2 0.0 E 3.4 E 0.0 0.0
04:55 20.1 18.9 84.3 1008.2 0.0 NNE 0.0 NE 0.0 0.0
05:00 20.1 19.0 84.8 1008.3 0.0 NNE 0.0 NE 0.0 0.0
05:05 20.2 19.2 84.6 1008.2 0.2 WSW 3.4 WSW 0.0 0.0
05:10 20.3 19.3 84.4 1008.2 0.0 NNE 0.0 WSW 0.0 0.0
05:15 20.4 19.5 84.3 1008.3 0.0 NNE 0.0 WSW 0.0 0.0
05:20 20.5 19.8 83.9 1008.2 0.0 NNE 0.0 WSW 0.0 0.0
05:25 20.7 20.1 83.8 1008.2 0.0 NNE 0.0 NW 0.0 0.0
05:30 20.8 20.4 83.7 1008.2 0.0 NNE 0.0 W 0.0 0.0
05:35 21.0 20.6 83.6 1008.2 0.0 NNE 0.0 0.0 0.0
05:40 21.1 20.8 83.0 1008.3 0.0 NNE 0.0 NNE 0.0 0.0
05:45 21.2 21.0 82.7 1008.4 0.1 SW 3.4 SW 0.0 0.0
05:50 21.3 21.2 82.5 1008.5 0.0 NNE 0.0 SSW 0.0 0.0
05:55 21.4 21.4 82.2 1008.5 0.0 NNE 0.0 SSW 0.0 0.0
06:00 21.5 21.6 81.8 1008.5 0.2 ESE 3.4 E 0.0 0.0
06:05 21.6 21.8 81.6 1008.6 0.1 S 3.4 S 0.0 0.0
06:10 21.7 22.1 81.4 1008.6 0.1 SE 3.4 ESE 0.0 0.0
06:15 21.9 22.2 80.5 1008.7 0.3 SE 3.4 SE 0.0 0.0
06:20 22.0 22.4 80.3 1009.0 0.0 NNE 0.0 SE 0.0 0.0
Máxima 22.1 22.4 84.8 1009.0 3.4 SSE 8.8 ENE 0.0 0.0
Mínima 20 18.8 78.7 1006.9
Total 0.0